Welsford, Canada
Current Conditions -  °F | °C
As of 6:00 AM on Sunday 23 Nov 2014 (Local Time) from CYSJ Reporting Station
Overcast Overcast  
Wind Chill: 30°   Ceiling: 3800
Heat Index: 34°   Visibility: 15mi
Dew Point: 25°   Wind: 5mph
Humidity: 70%   Direction: 270°W
Pressure: 29.92"   Gusts: NA
Location:  45.45°N, 66.35°W
Report Text: CYSJ 231000Z 27004KT 15SM BKN038 OVC160 01/M04 A2992 RMK SC5AC3 SLP136
Loading
Personal Weather Stations






























Interactive Weather Map New forecast layout! Learn more

10-Day Weather Forecast

Advertisements
Track Severe Weather on mobile